createdAt,value
2018-12-11T00:24:59.174Z,79.48
2018-12-11T00:27:44.937Z,79.70
2018-12-11T00:33:49.175Z,78.61
2018-12-11T00:39:36.737Z,77.90
2018-12-11T00:42:35.242Z,78.07
2018-12-11T00:48:25.078Z,78.49
2018-12-11T00:54:07.282Z,80.46
2018-12-11T00:57:04.879Z,79.05
2018-12-11T01:03:12.224Z,79.33
2018-12-11T01:06:12.404Z,80.62
2018-12-11T01:26:35.157Z,75.99
2018-12-11T01:29:06.420Z,77.28
2018-12-11T01:31:35.482Z,76.98
2018-12-11T01:34:05.034Z,76.91
2018-12-11T01:36:36.947Z,77.38
2018-12-11T01:39:09.606Z,76.94
2018-12-11T01:41:44.546Z,77.84
2018-12-11T01:44:14.813Z,77.87
2018-12-11T01:46:45.332Z,77.81
2018-12-11T01:49:17.284Z,77.73
2018-12-11T01:51:47.298Z,77.54
2018-12-11T01:54:17.605Z,78.14
2018-12-11T01:56:47.230Z,78.17
2018-12-11T01:59:20.249Z,77.56
2018-12-11T02:01:49.974Z,78.05
2018-12-11T02:04:23.285Z,78.24
2018-12-11T02:06:57.817Z,78.72
2018-12-11T02:09:35.150Z,78.81
2018-12-11T02:12:16.523Z,78.38
2018-12-11T02:14:46.625Z,79.47
2018-12-11T02:17:17.390Z,79.82
2018-12-11T02:19:48.187Z,80.08
2018-12-11T02:22:19.056Z,79.18
2018-12-11T02:24:48.330Z,78.08
2018-12-11T02:27:18.059Z,78.44
2018-12-11T02:29:47.875Z,78.59
2018-12-11T02:32:19.157Z,78.28
2018-12-11T02:34:49.123Z,78.11
2018-12-11T02:37:18.313Z,79.85
2018-12-11T02:39:49.172Z,79.85
2018-12-11T02:42:19.639Z,80.16
2018-12-11T02:44:49.974Z,81.70
2018-12-11T02:47:23.819Z,82.23
2018-12-11T02:50:00.512Z,82.94
2018-12-11T02:52:33.096Z,82.85
2018-12-11T02:55:03.456Z,83.12
2018-12-11T02:57:33.258Z,83.04
2018-12-11T03:00:05.999Z,83.55
2018-12-11T03:02:35.806Z,83.62
2018-12-11T03:05:06.024Z,83.75
2018-12-11T03:07:36.230Z,83.85
2018-12-11T03:10:06.629Z,84.02
2018-12-11T03:12:36.980Z,84.18
2018-12-11T03:15:07.603Z,84.59
2018-12-11T03:17:54.691Z,85.07
2018-12-11T03:20:34.036Z,87.27
2018-12-11T03:23:10.932Z,88.23
2018-12-11T03:25:44.370Z,87.10
2018-12-11T03:28:24.825Z,86.33
2018-12-11T03:30:59.564Z,85.24
2018-12-11T03:33:39.402Z,84.13
2018-12-11T03:36:15.708Z,83.39
2018-12-11T03:38:51.954Z,83.01
2018-12-11T03:41:22.426Z,82.70
2018-12-11T03:43:53.542Z,82.97
2018-12-11T03:46:24.959Z,83.11
2018-12-11T03:48:59.164Z,81.98
2018-12-11T03:51:29.139Z,82.03
2018-12-11T03:53:58.977Z,81.73
2018-12-11T03:56:29.832Z,81.41
2018-12-11T03:59:00.732Z,81.99
2018-12-11T04:01:33.804Z,82.18
2018-12-11T04:04:07.667Z,82.18
2018-12-11T04:06:41.675Z,83.98
2018-12-11T04:09:12.853Z,86.50
2018-12-11T04:11:42.255Z,87.42
2018-12-11T04:14:13.502Z,86.26
2018-12-11T04:16:44.851Z,86.28
2018-12-11T04:19:15.532Z,84.34
2018-12-11T04:21:47.149Z,85.01
2018-12-11T04:24:18.149Z,85.48
2018-12-11T04:26:51.635Z,85.17
2018-12-11T04:29:23.141Z,84.11
2018-12-11T04:31:54.029Z,83.25
2018-12-11T04:34:26.895Z,82.93
2018-12-11T04:37:04.953Z,83.18
2018-12-11T04:39:37.567Z,83.44
2018-12-11T04:42:09.763Z,83.45
2018-12-11T04:44:50.779Z,83.40
2018-12-11T04:47:24.310Z,82.81
2018-12-11T04:50:01.025Z,82.45
2018-12-11T04:52:44.436Z,81.69
2018-12-11T04:55:16.467Z,80.94
2018-12-11T04:57:47.562Z,80.68
2018-12-11T05:00:18.970Z,80.50
2018-12-11T05:02:50.627Z,79.90
2018-12-11T05:05:22.118Z,79.23
2018-12-11T05:07:55.920Z,79.68
2018-12-11T05:10:28.361Z,80.00
2018-12-11T05:13:04.478Z,79.94
2018-12-11T05:15:34.053Z,79.91
2018-12-11T05:18:07.535Z,80.40
2018-12-11T05:20:45.021Z,80.61
2018-12-11T05:23:16.567Z,80.55
2018-12-11T05:25:47.530Z,79.46
2018-12-11T05:28:19.928Z,78.58
2018-12-11T05:30:50.810Z,78.22
2018-12-11T05:33:23.626Z,78.03
2018-12-11T05:35:55.530Z,78.05
2018-12-11T05:38:41.018Z,77.98
2018-12-11T05:41:17.300Z,76.80
2018-12-11T05:43:50.950Z,77.26
2018-12-11T05:46:24.521Z,76.72
2018-12-11T05:48:59.885Z,76.68
2018-12-11T05:51:31.834Z,77.16
2018-12-11T05:54:05.833Z,77.91
2018-12-11T07:47:41.440Z,71.85
2018-12-11T07:50:30.585Z,72.53
2018-12-11T17:04:09.366Z,70.48
2018-12-11T17:06:38.253Z,70.96
2018-12-11T17:09:09.558Z,71.46
2018-12-11T17:11:38.379Z,70.33
2018-12-11T17:14:07.299Z,69.66
2018-12-11T17:16:36.113Z,69.26
2018-12-11T17:19:04.936Z,69.49
2018-12-11T17:21:35.267Z,68.97
2018-12-11T17:24:04.239Z,68.89
2018-12-11T17:26:33.109Z,68.85
2018-12-11T17:29:01.970Z,69.08
2018-12-11T17:31:31.890Z,68.81
2018-12-11T17:34:00.797Z,69.09
2018-12-11T17:36:29.609Z,69.28
2018-12-11T17:38:58.958Z,69.68
2018-12-11T17:41:27.808Z,69.28
2018-12-11T17:43:56.646Z,69.37
2018-12-11T17:46:25.617Z,69.94
2018-12-11T17:48:55.689Z,69.77
2018-12-11T17:51:24.571Z,69.52
2018-12-11T17:53:53.468Z,69.61
2018-12-11T17:56:22.374Z,70.16
2018-12-11T17:58:51.258Z,69.70
2018-12-11T18:01:21.562Z,69.36
2018-12-11T18:03:50.494Z,69.65
2018-12-11T18:06:19.378Z,69.37
2018-12-11T18:08:48.230Z,69.75
2018-12-11T18:11:18.362Z,69.28
2018-12-11T18:13:47.259Z,69.04
2018-12-11T18:16:16.170Z,68.75
2018-12-11T18:18:45.471Z,68.28
2018-12-11T18:21:14.349Z,68.27
2018-12-11T18:23:43.267Z,67.95
2018-12-11T18:26:12.147Z,68.13
2018-12-11T18:28:42.395Z,68.11
2018-12-11T18:31:11.323Z,68.20
2018-12-11T18:33:40.180Z,68.19
2018-12-11T18:36:09.013Z,68.35
2018-12-11T18:38:38.890Z,68.71
2018-12-11T18:41:08.062Z,68.71
2018-12-11T18:43:38.349Z,68.03
2018-12-11T18:46:07.296Z,68.59
2018-12-11T18:48:36.182Z,68.89
2018-12-11T18:51:05.297Z,68.72
2018-12-11T18:53:34.182Z,68.93
2018-12-11T18:56:03.014Z,69.12
2018-12-11T18:58:34.365Z,68.94
2018-12-11T19:01:02.930Z,68.89
2018-12-11T19:03:31.815Z,68.50
2018-12-11T19:06:00.714Z,68.79
2018-12-11T19:08:29.582Z,69.40
2018-12-11T19:10:59.856Z,70.12
2018-12-11T19:13:28.746Z,70.83
2018-12-11T19:15:58.235Z,70.49
2018-12-11T19:18:27.336Z,71.24
2018-12-11T19:20:56.214Z,70.73
2018-12-11T19:23:36.348Z,68.93
2018-12-11T19:26:05.351Z,71.31
2018-12-11T19:28:34.204Z,72.22
2018-12-11T19:31:03.513Z,73.07
2018-12-11T19:33:33.597Z,73.23
2018-12-11T19:36:03.068Z,72.42
2018-12-11T19:38:31.948Z,72.56
2018-12-11T19:41:00.867Z,72.19
2018-12-11T19:43:29.722Z,72.35
2018-12-11T19:45:58.609Z,72.97
2018-12-11T19:48:27.545Z,71.84
2018-12-11T19:50:56.377Z,72.14
2018-12-11T19:53:26.795Z,73.49
2018-12-11T19:55:57.786Z,74.87
2018-12-11T19:58:26.647Z,75.62
2018-12-11T20:00:55.550Z,75.99
2018-12-11T20:03:25.687Z,76.07
2018-12-11T20:05:54.609Z,76.42
2018-12-11T20:08:23.475Z,76.53
2018-12-11T20:10:55.677Z,76.53
2018-12-11T20:13:24.716Z,76.59
2018-12-11T20:15:53.569Z,76.51
2018-12-11T20:18:22.560Z,76.18
2018-12-11T20:20:56.315Z,76.58
2018-12-11T20:23:25.203Z,76.27
2018-12-11T20:25:54.174Z,76.00
2018-12-11T20:28:23.018Z,77.29
2018-12-11T20:30:51.934Z,77.57
2018-12-11T20:33:20.805Z,77.14
2018-12-11T20:35:49.970Z,75.40
2018-12-11T20:38:21.299Z,75.50
2018-12-11T20:40:51.514Z,76.21
2018-12-11T20:43:26.673Z,76.78
2018-12-11T20:45:55.687Z,77.99
2018-12-11T20:48:24.847Z,78.69
2018-12-11T20:50:53.790Z,78.89
2018-12-11T20:53:22.683Z,79.82
2018-12-11T20:55:51.694Z,80.63
2018-12-11T20:58:20.602Z,82.25
2018-12-11T21:00:49.780Z,83.94
2018-12-11T21:03:18.781Z,83.96
2018-12-11T21:05:49.077Z,82.79
2018-12-11T21:08:19.491Z,80.63
2018-12-11T21:10:48.305Z,80.55
2018-12-11T21:13:18.948Z,80.27
2018-12-11T21:15:48.007Z,80.06
2018-12-11T21:18:16.856Z,79.90
2018-12-11T21:20:45.737Z,79.82
2018-12-11T21:23:14.574Z,80.36
2018-12-11T21:25:43.421Z,80.98
2018-12-11T21:28:12.265Z,80.09
2018-12-11T21:30:41.133Z,79.45
2018-12-11T21:33:10.597Z,79.49
2018-12-11T21:35:39.450Z,79.25
2018-12-11T21:38:08.333Z,79.35
2018-12-11T21:40:37.187Z,78.92
2018-12-11T21:43:06.021Z,79.00
2018-12-11T21:45:40.282Z,78.94
2018-12-11T21:48:09.187Z,78.60
2018-12-11T21:50:38.037Z,78.50
2018-12-11T21:53:06.854Z,78.17
2018-12-11T21:55:35.877Z,77.53
2018-12-11T21:58:04.778Z,77.72
2018-12-11T22:00:33.669Z,77.47
2018-12-11T22:03:02.574Z,77.36
2018-12-11T22:05:31.409Z,78.37
2018-12-11T22:08:00.233Z,78.72
2018-12-11T22:10:30.123Z,78.77
2018-12-11T22:12:58.986Z,77.82
2018-12-11T22:15:27.810Z,77.57
2018-12-11T22:17:56.669Z,77.82
2018-12-11T22:20:25.577Z,77.11
2018-12-11T22:22:54.431Z,77.40
2018-12-11T22:25:23.342Z,77.39
2018-12-11T22:27:52.198Z,77.19
2018-12-11T22:30:21.193Z,77.15
2018-12-11T22:32:50.268Z,77.39
2018-12-11T22:35:19.191Z,77.27
2018-12-11T22:37:48.032Z,76.40
2018-12-11T22:40:16.938Z,75.59
2018-12-11T22:42:52.098Z,74.33
2018-12-11T22:45:20.953Z,73.46
2018-12-11T22:47:49.773Z,71.31
2018-12-11T22:50:18.592Z,69.85
2018-12-11T22:52:48.082Z,69.08
2018-12-11T22:55:17.128Z,67.65
2018-12-11T22:57:45.968Z,67.48
2018-12-11T23:00:14.878Z,67.49
2018-12-11T23:02:44.563Z,67.65
2018-12-11T23:05:13.488Z,67.92
2018-12-11T23:07:42.401Z,68.63
2018-12-11T23:10:11.290Z,67.98
2018-12-11T23:12:40.157Z,67.58
2018-12-11T23:15:09.118Z,67.72
2018-12-11T23:17:40.041Z,67.99
2018-12-11T23:20:08.985Z,66.94
2018-12-11T23:22:37.847Z,67.76
2018-12-11T23:25:07.177Z,67.28
2018-12-11T23:27:36.060Z,68.22
2018-12-11T23:30:05.676Z,70.28
2018-12-11T23:32:34.614Z,69.93
2018-12-11T23:35:03.690Z,70.00
2018-12-11T23:37:32.590Z,69.90
2018-12-11T23:40:01.456Z,68.72
2018-12-11T23:42:30.366Z,67.78
2018-12-11T23:44:59.192Z,68.56
2018-12-11T23:47:28.034Z,69.14
2018-12-11T23:49:57.025Z,68.85
2018-12-11T23:52:25.911Z,68.87
2018-12-11T23:54:54.758Z,68.98
2018-12-11T23:57:23.676Z,70.14
2018-12-11T23:59:52.615Z,71.08
